Latest Conditions
At L.F.Wade Int. Airport
Recorded at 4:55 pm
Few Clouds
Temp.: 
21°C/70°F
Humidity: 
59%
Wind: 
NW 11KT
or 13mph
Island Observations
 
Observations
Tuesday, March 31, 2020

Observations are in local time and taken at least once an hour, or upon the start and end of specified events such as showers and thunderstorms.

Time Sky / Weather Wind Speed/Gusts Temp. R.H. Pressure
     knots (mph)  °C (°F)  %  mb / "Hg
 16:55 Few Clouds  NW 11/0 (13/0) 21(70) 59 1009 / 29.79
 15:55 Mostly Cloudy  NW 12/0 (14/0) 21(70) 58 1009 / 29.80
 14:55 Mostly Cloudy  NW 12/0 (14/0) 21(70) 65 1009 / 29.80
 13:55 Partly Cloudy  NW 12/0 (14/0) 21(71) 66 1009 / 29.81
 12:55 Partly Cloudy  NW 13/0 (15/0) 21(70) 68 1010 / 29.82
 11:55 Partly Cloudy  NW 14/0 (16/0) 21(70) 65 1010 / 29.83
 10:55 Mostly Cloudy  NW 13/0 (15/0) 20(69) 72 1010 / 29.83
 09:55 Mostly Cloudy  NW 11/0 (13/0) 21(69) 75 1009 / 29.81
 08:55 Mostly Cloudy  NW 13/0 (15/0) 20(68) 76 1009 / 29.80
 07:55 Mostly Cloudy  NW 12/0 (14/0) 20(68) 78 1009 / 29.80
 06:55 Few Clouds  NW 15/0 (17/0) 20(68) 89 1008 / 29.77
 05:55 Mostly Cloudy  WNW 17/0 (20/0) 21(69) 86 1008 / 29.76
 04:55 Mostly Cloudy  WNW 17/0 (20/0) 21(69) 86 1008 / 29.76
 04:39 Mostly Cloudy  WNW 17/0 (20/0) 21(70) 86 1007 / 29.75
 03:55 Mostly Cloudy  W 19/0 (22/0) 21(69) 92 1008 / 29.77
 03:44 Mostly Cloudy  W 19/0 (22/0) 21(70) 91 1008 / 29.78
 02:55 Mostly Cloudy  W 20/0 (23/0) 21(70) 91 1009 / 29.79
 02:15 Mostly Cloudy  W 17/0 (20/0) 21(70) 90 1009 / 29.79
 01:55 Mostly Cloudy  W 18/0 (21/0) 21(70) 90 1009 / 29.80
 01:46 Mostly Cloudy  W 18/0 (21/0) 21(70) 91 1009 / 29.80
 00:55 Mostly Cloudy  W 18/0 (21/0) 21(70) 91 1010 / 29.82
 00:27 Mostly Cloudy  W 18/0 (21/0) 21(70) 93 1010 / 29.83
 23:55 Mostly Cloudy  W 17/0 (20/0) 21(70) 93 1010 / 29.84
 23:16 Overcast  W 16/0 (18/0) 21(70) 94 1010 / 29.84
 22:55 Overcast  W 15/0 (17/0) 21(70) 94 1011 / 29.85
 21:55 Overcast  W 18/0 (21/0) 21(70) 92 1011 / 29.86
 20:55 Overcast  W 17/0 (20/0) 21(70) 92 1012 / 29.88
 20:20 Overcast  W 17/0 (20/0) 21(70) 92 1011 / 29.86
 19:55 Overcast  W 20/0 (23/0) 21(70) 91 1012 / 29.87
 18:55 Mostly Cloudy  W 18/0 (21/0) 21(71) 90 1011 / 29.86
 17:55 Mostly Cloudy  W 18/0 (21/0) 22(71) 87 1012 / 29.87
 16:55 Overcast  W 19/0 (22/0) 22(72) 81 1012 / 29.88
 15:55 Mostly Cloudy  W 20/0 (23/0) 22(72) 79 1013 / 29.91
 14:55 Mostly Cloudy  W 21/0 (24/0) 22(72) 80 1014 / 29.95
 13:55 Mostly Cloudy  W 18/0 (21/0) 22(72) 80 1015 / 29.96
 12:55 Overcast  W 17/0 (20/0) 22(71) 81 1016 / 29.99
 11:55 Overcast  W 17/0 (20/0) 22(71) 80 1017 / 30.03
 11:39 Mostly Cloudy  W 16/0 (18/0) 22(71) 79 1017 / 30.03
 10:55 Partly Cloudy  W 15/0 (17/0) 22(71) 78 1017 / 30.04
 09:55 Few Clouds  W 14/0 (16/0) 21(70) 81 1017 / 30.04
 08:55 Partly Cloudy  W 13/0 (15/0) 21(70) 84 1018 / 30.06
 07:55 Partly Cloudy  W 10/0 (12/0) 20(68) 88 1018 / 30.06
 06:55 Mostly Cloudy  W 12/0 (14/0) 20(68) 87 1018 / 30.05
 05:55 Mostly Cloudy  W 11/0 (13/0) 20(68) 85 1018 / 30.06
 04:55 Mostly Cloudy  W 11/0 (13/0) 20(68) 86 1018 / 30.05
 03:55 Mostly Cloudy  W 13/0 (15/0) 20(68) 87 1018 / 30.07
 03:44 Mostly Cloudy  W 12/0 (14/0) 20(68) 86 1018 / 30.07
 02:55 Mostly Cloudy  W 13/0 (15/0) 20(68) 86 1019 / 30.09
 01:55 Partly Cloudy  W 15/0 (17/0) 20(68) 84 1019 / 30.10
 00:55 Partly Cloudy  WSW 11/0 (13/0) 20(68) 86 1019 / 30.10
 23:55 Partly Cloudy  WSW 12/0 (14/0) 20(68) 84 1020 / 30.11
 22:55 Few Clouds  WSW 10/0 (12/0) 20(68) 87 1020 / 30.13
 21:55 Partly Cloudy  W 10/0 (12/0) 20(68) 88 1021 / 30.15
 20:55 Few Clouds  W 10/0 (12/0) 20(69) 89 1021 / 30.16
 19:55 Few Clouds  W 11/0 (13/0) 21(70) 86 1021 / 30.15
 18:55 Partly Cloudy  W 9/0 (10/0) 21(70) 86 1021 / 30.15
 17:55 Partly Cloudy  W 9/0 (10/0) 22(71) 86 1021 / 30.15
 16:55 Partly Cloudy  W 11/0 (13/0) 22(71) 84 1021 / 30.14
 15:55 Mostly Cloudy  W 11/0 (13/0) 22(72) 86 1021 / 30.15
 14:55 Mostly Cloudy  W 12/0 (14/0) 22(71) 85 1021 / 30.15
 14:41 Mostly Cloudy Showers W 10/0 (12/0) 22(71) 85 1021 / 30.16
 13:55 Mostly Cloudy Showers S 9/0 (10/0) 21(70) 85 1022 / 30.17
 13:29 Overcast Showers S 9/0 (10/0) 21(69) 85 1022 / 30.17
 13:10 Mostly Cloudy Drizzle S 9/0 (10/0) 21(69) 85 1022 / 30.18
 12:55 Overcast Showers S 9/0 (10/0) 20(68) 85 1022 / 30.18
 11:55 Overcast Showers S 7/0 (8/0) 20(68) 83 1023 / 30.21
 10:55 Overcast Showers S 10/0 (12/0) 20(68) 79 1023 / 30.21
 09:55 Overcast Showers SE 10/0 (12/0) 20(67) 75 1023 / 30.20
 08:55 Overcast  SE 10/0 (12/0) 19(67) 74 1023 / 30.20
 07:55 Overcast  SE 9/0 (10/0) 19(66) 74 1022 / 30.19
 06:55 Overcast  SE 9/0 (10/0) 18(65) 76 1022 / 30.18
 06:00 Overcast Showers SSE 8/0 (9/0) 18(64) 79 1022 / 30.17
 05:55 Overcast Showers SE 9/0 (10/0) 18(64) 78 1022 / 30.17
 05:21 Overcast Showers SSE 7/0 (8/0) 18(65) 73 1022 / 30.17
 05:06 Overcast Showers SSE 8/0 (9/0) 20(68) 84 1022 / 30.17
 04:55 Overcast Showers SE 7/0 (8/0) 19(66) 69 1021 / 30.16
 03:55 Overcast Showers SE 8/0 (9/0) 18(65) 68 1022 / 30.17
 02:55 Overcast  SE 10/0 (12/0) 18(65) 68 1022 / 30.18
 01:55 Mostly Cloudy  ESE 11/0 (13/0) 18(65) 67 1023 / 30.20
 00:55 Mostly Cloudy  E 13/0 (15/0) 18(65) 67 1023 / 30.22
 23:55 Mostly Cloudy  E 10/0 (12/0) 18(65) 69 1023 / 30.22
 22:55 Overcast  E 10/0 (12/0) 19(65) 67 1023 / 30.22
 21:55 Mostly Cloudy  ENE 9/0 (10/0) 19(65) 68 1024 / 30.23
 20:55 Mostly Cloudy  ENE 9/0 (10/0) 19(66) 69 1023 / 30.20
 19:55 Mostly Cloudy  E 9/0 (10/0) 19(66) 70 1022 / 30.17
 18:55 Mostly Cloudy  E 9/0 (10/0) 20(68) 68 1021 / 30.16
 17:55 Mostly Cloudy  E 10/0 (12/0) 20(68) 68 1020 / 30.13
 16:55 Mostly Cloudy  ENE 11/0 (13/0) 20(68) 70 1020 / 30.13
 15:55 Mostly Cloudy  ENE 11/0 (13/0) 20(69) 75 1020 / 30.13
 14:55 Mostly Cloudy  ENE 11/0 (13/0) 21(69) 72 1020 / 30.12
 13:55 Mostly Cloudy  NE 12/0 (14/0) 21(70) 73 1020 / 30.12
 12:55 Mostly Cloudy  NE 11/0 (13/0) 21(70) 74 1020 / 30.13
 11:55 Mostly Cloudy Showers NE 10/0 (12/0) 20(69) 83 1020 / 30.12
 11:18 Overcast Showers N 9/0 (10/0) 20(69) 83 1020 / 30.13
 10:55 Mostly Cloudy Showers NNW 12/0 (14/0) 21(69) 84 1020 / 30.12
 10:36 Mostly Cloudy Showers NNW 16/0 (18/0) 21(70) 83 1020 / 30.11
 10:18 Mostly Cloudy Showers WNW 16/0 (18/0) 21(70) 83 1019 / 30.10
 09:55 Mostly Cloudy Showers W 16/0 (18/0) 21(69) 83 1019 / 30.10
 08:55 Partly Cloudy  W 16/0 (18/0) 20(69) 82 1019 / 30.09
 07:55 Mostly Cloudy Showers W 16/0 (18/0) 20(68) 83 1018 / 30.07
Island AWOS